sensor_id;sensor_type;location;lat;lon;timestamp;P1;durP1;ratioP1;P2;durP2;ratioP2
16640;SDS011;8434;47.990;7.880;2023-02-11T00:02:40;30.73;;;16.23;;
16640;SDS011;8434;47.990;7.880;2023-02-11T00:05:25;27.23;;;16.20;;
16640;SDS011;8434;47.990;7.880;2023-02-11T00:08:10;28.53;;;16.73;;
16640;SDS011;8434;47.990;7.880;2023-02-11T00:10:59;31.20;;;17.33;;
16640;SDS011;8434;47.990;7.880;2023-02-11T00:13:45;29.80;;;16.30;;
16640;SDS011;8434;47.990;7.880;2023-02-11T00:16:30;25.60;;;14.80;;
16640;SDS011;8434;47.990;7.880;2023-02-11T00:19:17;27.07;;;14.97;;
16640;SDS011;8434;47.990;7.880;2023-02-11T00:22:03;33.33;;;15.77;;
16640;SDS011;8434;47.990;7.880;2023-02-11T00:24:48;26.27;;;15.73;;
16640;SDS011;8434;47.990;7.880;2023-02-11T00:27:35;31.33;;;15.23;;
16640;SDS011;8434;47.990;7.880;2023-02-11T00:30:20;28.20;;;15.93;;
16640;SDS011;8434;47.990;7.880;2023-02-11T00:33:06;29.83;;;15.10;;
16640;SDS011;8434;47.990;7.880;2023-02-11T00:35:53;28.47;;;17.07;;
16640;SDS011;8434;47.990;7.880;2023-02-11T00:38:38;29.83;;;17.77;;
16640;SDS011;8434;47.990;7.880;2023-02-11T00:41:26;30.13;;;17.57;;
16640;SDS011;8434;47.990;7.880;2023-02-11T00:44:11;27.50;;;16.37;;
16640;SDS011;8434;47.990;7.880;2023-02-11T00:46:57;30.23;;;16.60;;
16640;SDS011;8434;47.990;7.880;2023-02-11T00:49:42;28.67;;;16.50;;
16640;SDS011;8434;47.990;7.880;2023-02-11T00:52:29;28.70;;;15.17;;
16640;SDS011;8434;47.990;7.880;2023-02-11T00:55:15;25.37;;;14.00;;
16640;SDS011;8434;47.990;7.880;2023-02-11T00:58:01;27.33;;;15.80;;
16640;SDS011;8434;47.990;7.880;2023-02-11T01:00:46;29.03;;;16.37;;
16640;SDS011;8434;47.990;7.880;2023-02-11T01:03:31;31.80;;;15.90;;
16640;SDS011;8434;47.990;7.880;2023-02-11T01:06:17;24.43;;;14.77;;
16640;SDS011;8434;47.990;7.880;2023-02-11T01:09:04;27.47;;;15.03;;
16640;SDS011;8434;47.990;7.880;2023-02-11T01:11:52;27.27;;;14.37;;
16640;SDS011;8434;47.990;7.880;2023-02-11T01:14:37;24.47;;;14.30;;
16640;SDS011;8434;47.990;7.880;2023-02-11T01:17:23;25.20;;;15.03;;
16640;SDS011;8434;47.990;7.880;2023-02-11T01:20:11;27.10;;;14.27;;
16640;SDS011;8434;47.990;7.880;2023-02-11T01:22:57;27.17;;;14.63;;
16640;SDS011;8434;47.990;7.880;2023-02-11T01:25:44;28.20;;;15.00;;
16640;SDS011;8434;47.990;7.880;2023-02-11T01:28:29;26.63;;;14.50;;
16640;SDS011;8434;47.990;7.880;2023-02-11T01:31:17;22.40;;;14.37;;
16640;SDS011;8434;47.990;7.880;2023-02-11T01:34:02;24.20;;;13.30;;
16640;SDS011;8434;47.990;7.880;2023-02-11T01:36:48;27.50;;;15.00;;
16640;SDS011;8434;47.990;7.880;2023-02-11T01:39:34;24.87;;;14.23;;
16640;SDS011;8434;47.990;7.880;2023-02-11T01:42:21;24.67;;;14.37;;
16640;SDS011;8434;47.990;7.880;2023-02-11T01:48:15;28.77;;;16.50;;
16640;SDS011;8434;47.990;7.880;2023-02-11T01:51:03;29.83;;;16.20;;
16640;SDS011;8434;47.990;7.880;2023-02-11T01:53:50;30.63;;;16.77;;
16640;SDS011;8434;47.990;7.880;2023-02-11T01:56:55;25.57;;;15.40;;
16640;SDS011;8434;47.990;7.880;2023-02-11T02:00:00;28.67;;;14.63;;
16640;SDS011;8434;47.990;7.880;2023-02-11T02:02:59;26.87;;;15.27;;
16640;SDS011;8434;47.990;7.880;2023-02-11T02:05:47;29.43;;;15.90;;
16640;SDS011;8434;47.990;7.880;2023-02-11T02:08:35;24.07;;;15.07;;
16640;SDS011;8434;47.990;7.880;2023-02-11T02:11:22;28.40;;;16.47;;
16640;SDS011;8434;47.990;7.880;2023-02-11T02:14:09;31.30;;;15.67;;
16640;SDS011;8434;47.990;7.880;2023-02-11T02:16:56;27.80;;;15.47;;
16640;SDS011;8434;47.990;7.880;2023-02-11T02:19:50;30.87;;;15.20;;
16640;SDS011;8434;47.990;7.880;2023-02-11T02:29:07;23.60;;;13.90;;
16640;SDS011;8434;47.990;7.880;2023-02-11T02:34:47;22.97;;;12.93;;
16640;SDS011;8434;47.990;7.880;2023-02-11T02:37:35;23.67;;;13.40;;
16640;SDS011;8434;47.990;7.880;2023-02-11T02:40:23;24.20;;;13.07;;
16640;SDS011;8434;47.990;7.880;2023-02-11T02:43:09;19.60;;;11.27;;
16640;SDS011;8434;47.990;7.880;2023-02-11T02:45:55;22.03;;;12.83;;
16640;SDS011;8434;47.990;7.880;2023-02-11T02:48:40;21.90;;;12.43;;
16640;SDS011;8434;47.990;7.880;2023-02-11T02:54:42;17.43;;;10.17;;
16640;SDS011;8434;47.990;7.880;2023-02-11T02:57:33;16.77;;;9.97;;
16640;SDS011;8434;47.990;7.880;2023-02-11T03:00:23;20.50;;;12.07;;
16640;SDS011;8434;47.990;7.880;2023-02-11T03:03:15;24.43;;;12.03;;
16640;SDS011;8434;47.990;7.880;2023-02-11T03:06:02;23.43;;;13.30;;
16640;SDS011;8434;47.990;7.880;2023-02-11T03:08:50;22.90;;;12.60;;
16640;SDS011;8434;47.990;7.880;2023-02-11T03:11:38;25.83;;;13.37;;
16640;SDS011;8434;47.990;7.880;2023-02-11T03:14:24;23.50;;;13.40;;
16640;SDS011;8434;47.990;7.880;2023-02-11T03:17:10;21.73;;;13.17;;
16640;SDS011;8434;47.990;7.880;2023-02-11T03:19:56;24.03;;;12.00;;
16640;SDS011;8434;47.990;7.880;2023-02-11T03:22:44;21.73;;;13.57;;
16640;SDS011;8434;47.990;7.880;2023-02-11T03:25:34;23.70;;;12.30;;
16640;SDS011;8434;47.990;7.880;2023-02-11T03:28:24;19.57;;;11.10;;
16640;SDS011;8434;47.990;7.880;2023-02-11T03:31:13;20.43;;;12.30;;
16640;SDS011;8434;47.990;7.880;2023-02-11T03:34:03;18.10;;;10.27;;
16640;SDS011;8434;47.990;7.880;2023-02-11T03:36:52;17.63;;;9.57;;
16640;SDS011;8434;47.990;7.880;2023-02-11T03:39:41;19.87;;;10.87;;
16640;SDS011;8434;47.990;7.880;2023-02-11T03:42:30;21.23;;;11.07;;
16640;SDS011;8434;47.990;7.880;2023-02-11T03:45:18;18.13;;;10.00;;
16640;SDS011;8434;47.990;7.880;2023-02-11T03:48:05;17.47;;;9.70;;
16640;SDS011;8434;47.990;7.880;2023-02-11T03:50:51;17.60;;;10.00;;
16640;SDS011;8434;47.990;7.880;2023-02-11T03:53:37;15.37;;;8.60;;
16640;SDS011;8434;47.990;7.880;2023-02-11T03:56:25;17.30;;;9.90;;
16640;SDS011;8434;47.990;7.880;2023-02-11T03:59:11;18.00;;;9.60;;
16640;SDS011;8434;47.990;7.880;2023-02-11T04:01:58;18.47;;;10.40;;
16640;SDS011;8434;47.990;7.880;2023-02-11T04:04:43;17.13;;;9.93;;
16640;SDS011;8434;47.990;7.880;2023-02-11T04:07:29;15.53;;;9.33;;
16640;SDS011;8434;47.990;7.880;2023-02-11T04:10:14;17.43;;;9.90;;
16640;SDS011;8434;47.990;7.880;2023-02-11T04:13:00;21.60;;;10.57;;
16640;SDS011;8434;47.990;7.880;2023-02-11T04:15:45;20.77;;;11.53;;
16640;SDS011;8434;47.990;7.880;2023-02-11T04:18:32;18.37;;;9.93;;
16640;SDS011;8434;47.990;7.880;2023-02-11T04:21:17;16.90;;;10.27;;
16640;SDS011;8434;47.990;7.880;2023-02-11T04:24:03;21.90;;;10.97;;
16640;SDS011;8434;47.990;7.880;2023-02-11T04:26:48;16.90;;;10.13;;
16640;SDS011;8434;47.990;7.880;2023-02-11T04:29:34;20.23;;;10.50;;
16640;SDS011;8434;47.990;7.880;2023-02-11T04:32:19;21.30;;;11.73;;
16640;SDS011;8434;47.990;7.880;2023-02-11T04:35:06;15.40;;;9.03;;
16640;SDS011;8434;47.990;7.880;2023-02-11T04:37:52;16.17;;;8.60;;
16640;SDS011;8434;47.990;7.880;2023-02-11T04:40:37;16.83;;;9.50;;
16640;SDS011;8434;47.990;7.880;2023-02-11T04:43:23;15.03;;;8.97;;
16640;SDS011;8434;47.990;7.880;2023-02-11T04:46:08;14.20;;;8.83;;
16640;SDS011;8434;47.990;7.880;2023-02-11T04:48:55;14.57;;;8.43;;
16640;SDS011;8434;47.990;7.880;2023-02-11T04:51:42;18.67;;;9.97;;
16640;SDS011;8434;47.990;7.880;2023-02-11T04:54:28;17.97;;;9.43;;
16640;SDS011;8434;47.990;7.880;2023-02-11T04:57:13;16.17;;;8.70;;
16640;SDS011;8434;47.990;7.880;2023-02-11T04:59:59;16.40;;;9.10;;
16640;SDS011;8434;47.990;7.880;2023-02-11T05:02:44;17.53;;;8.77;;
16640;SDS011;8434;47.990;7.880;2023-02-11T05:05:30;15.73;;;8.80;;
16640;SDS011;8434;47.990;7.880;2023-02-11T05:08:16;15.97;;;9.20;;
16640;SDS011;8434;47.990;7.880;2023-02-11T05:11:02;13.67;;;8.10;;
16640;SDS011;8434;47.990;7.880;2023-02-11T05:13:47;15.10;;;7.73;;
16640;SDS011;8434;47.990;7.880;2023-02-11T05:16:33;16.23;;;8.50;;
16640;SDS011;8434;47.990;7.880;2023-02-11T05:19:18;17.50;;;9.87;;
16640;SDS011;8434;47.990;7.880;2023-02-11T05:22:03;15.87;;;9.03;;
16640;SDS011;8434;47.990;7.880;2023-02-11T05:24:50;15.03;;;8.83;;
16640;SDS011;8434;47.990;7.880;2023-02-11T05:27:36;18.43;;;8.80;;
16640;SDS011;8434;47.990;7.880;2023-02-11T05:30:21;17.60;;;9.10;;
16640;SDS011;8434;47.990;7.880;2023-02-11T05:33:06;14.80;;;8.27;;
16640;SDS011;8434;47.990;7.880;2023-02-11T05:35:52;13.30;;;8.20;;
16640;SDS011;8434;47.990;7.880;2023-02-11T05:38:41;15.80;;;8.03;;
16640;SDS011;8434;47.990;7.880;2023-02-11T05:41:28;13.27;;;8.30;;
16640;SDS011;8434;47.990;7.880;2023-02-11T05:44:14;17.43;;;8.30;;
16640;SDS011;8434;47.990;7.880;2023-02-11T05:47:01;11.57;;;6.50;;
16640;SDS011;8434;47.990;7.880;2023-02-11T05:49:47;13.13;;;8.07;;
16640;SDS011;8434;47.990;7.880;2023-02-11T05:52:32;15.27;;;8.60;;
16640;SDS011;8434;47.990;7.880;2023-02-11T05:55:18;16.57;;;8.87;;
16640;SDS011;8434;47.990;7.880;2023-02-11T05:58:05;19.23;;;8.83;;
16640;SDS011;8434;47.990;7.880;2023-02-11T06:00:50;15.70;;;9.20;;
16640;SDS011;8434;47.990;7.880;2023-02-11T06:03:36;21.70;;;9.27;;
16640;SDS011;8434;47.990;7.880;2023-02-11T06:06:21;17.30;;;8.47;;
16640;SDS011;8434;47.990;7.880;2023-02-11T06:09:08;19.20;;;10.87;;
16640;SDS011;8434;47.990;7.880;2023-02-11T06:11:54;13.40;;;8.27;;
16640;SDS011;8434;47.990;7.880;2023-02-11T06:14:40;17.33;;;8.80;;
16640;SDS011;8434;47.990;7.880;2023-02-11T06:17:25;13.13;;;7.23;;
16640;SDS011;8434;47.990;7.880;2023-02-11T06:20:11;15.50;;;8.80;;
16640;SDS011;8434;47.990;7.880;2023-02-11T06:22:57;15.77;;;8.13;;
16640;SDS011;8434;47.990;7.880;2023-02-11T06:25:42;17.20;;;7.90;;
16640;SDS011;8434;47.990;7.880;2023-02-11T06:28:28;17.63;;;8.43;;
16640;SDS011;8434;47.990;7.880;2023-02-11T06:31:15;13.87;;;7.73;;
16640;SDS011;8434;47.990;7.880;2023-02-11T06:34:01;13.17;;;8.03;;
16640;SDS011;8434;47.990;7.880;2023-02-11T06:36:46;16.70;;;8.33;;
16640;SDS011;8434;47.990;7.880;2023-02-11T06:39:32;15.77;;;8.57;;
16640;SDS011;8434;47.990;7.880;2023-02-11T06:42:17;12.00;;;7.20;;
16640;SDS011;8434;47.990;7.880;2023-02-11T06:45:03;13.93;;;7.83;;
16640;SDS011;8434;47.990;7.880;2023-02-11T06:51:24;14.00;;;8.00;;
16640;SDS011;8434;47.990;7.880;2023-02-11T06:54:10;16.90;;;8.27;;
16640;SDS011;8434;47.990;7.880;2023-02-11T06:56:56;14.17;;;7.43;;
16640;SDS011;8434;47.990;7.880;2023-02-11T06:59:41;15.60;;;7.73;;
16640;SDS011;8434;47.990;7.880;2023-02-11T07:02:26;13.33;;;7.30;;
16640;SDS011;8434;47.990;7.880;2023-02-11T07:05:12;15.87;;;8.80;;
16640;SDS011;8434;47.990;7.880;2023-02-11T07:07:59;15.03;;;7.83;;
16640;SDS011;8434;47.990;7.880;2023-02-11T07:10:44;17.53;;;8.33;;
16640;SDS011;8434;47.990;7.880;2023-02-11T07:13:29;13.10;;;8.13;;
16640;SDS011;8434;47.990;7.880;2023-02-11T07:16:15;13.03;;;7.47;;
16640;SDS011;8434;47.990;7.880;2023-02-11T07:19:01;14.07;;;8.60;;
16640;SDS011;8434;47.990;7.880;2023-02-11T07:21:46;12.63;;;7.40;;
16640;SDS011;8434;47.990;7.880;2023-02-11T07:24:33;15.73;;;8.80;;
16640;SDS011;8434;47.990;7.880;2023-02-11T07:27:19;16.50;;;8.90;;
16640;SDS011;8434;47.990;7.880;2023-02-11T07:30:05;13.43;;;7.73;;
16640;SDS011;8434;47.990;7.880;2023-02-11T07:32:50;13.60;;;7.73;;
16640;SDS011;8434;47.990;7.880;2023-02-11T07:35:36;14.53;;;7.43;;
16640;SDS011;8434;47.990;7.880;2023-02-11T07:38:22;14.47;;;8.40;;
16640;SDS011;8434;47.990;7.880;2023-02-11T07:41:09;13.53;;;8.27;;
16640;SDS011;8434;47.990;7.880;2023-02-11T07:43:55;14.40;;;7.37;;
16640;SDS011;8434;47.990;7.880;2023-02-11T07:46:40;17.43;;;8.00;;
16640;SDS011;8434;47.990;7.880;2023-02-11T07:49:28;13.37;;;8.27;;
16640;SDS011;8434;47.990;7.880;2023-02-11T07:52:13;14.27;;;8.27;;
16640;SDS011;8434;47.990;7.880;2023-02-11T07:54:59;14.47;;;8.40;;
16640;SDS011;8434;47.990;7.880;2023-02-11T07:57:46;17.23;;;9.00;;
16640;SDS011;8434;47.990;7.880;2023-02-11T08:00:31;17.40;;;10.07;;
16640;SDS011;8434;47.990;7.880;2023-02-11T08:03:16;17.73;;;10.30;;
16640;SDS011;8434;47.990;7.880;2023-02-11T08:06:02;14.50;;;9.27;;
16640;SDS011;8434;47.990;7.880;2023-02-11T08:08:48;17.00;;;9.57;;
16640;SDS011;8434;47.990;7.880;2023-02-11T08:11:33;16.70;;;9.00;;
16640;SDS011;8434;47.990;7.880;2023-02-11T08:14:20;13.17;;;8.37;;
16640;SDS011;8434;47.990;7.880;2023-02-11T08:17:08;17.70;;;9.67;;
16640;SDS011;8434;47.990;7.880;2023-02-11T08:19:53;17.10;;;9.37;;
16640;SDS011;8434;47.990;7.880;2023-02-11T08:22:39;16.03;;;9.37;;
16640;SDS011;8434;47.990;7.880;2023-02-11T08:25:24;17.80;;;9.50;;
16640;SDS011;8434;47.990;7.880;2023-02-11T08:28:09;19.07;;;9.13;;
16640;SDS011;8434;47.990;7.880;2023-02-11T08:30:56;16.37;;;10.50;;
16640;SDS011;8434;47.990;7.880;2023-02-11T08:33:42;17.13;;;9.73;;
16640;SDS011;8434;47.990;7.880;2023-02-11T08:36:29;17.67;;;10.30;;
16640;SDS011;8434;47.990;7.880;2023-02-11T08:39:16;20.03;;;11.03;;
16640;SDS011;8434;47.990;7.880;2023-02-11T08:42:01;16.63;;;10.53;;
16640;SDS011;8434;47.990;7.880;2023-02-11T08:44:47;17.03;;;9.90;;
16640;SDS011;8434;47.990;7.880;2023-02-11T08:47:34;18.50;;;10.60;;
16640;SDS011;8434;47.990;7.880;2023-02-11T08:50:19;15.57;;;10.63;;
16640;SDS011;8434;47.990;7.880;2023-02-11T08:53:05;17.27;;;10.73;;
16640;SDS011;8434;47.990;7.880;2023-02-11T08:55:51;17.27;;;11.10;;
16640;SDS011;8434;47.990;7.880;2023-02-11T08:58:36;18.07;;;11.27;;
16640;SDS011;8434;47.990;7.880;2023-02-11T09:01:22;20.40;;;11.43;;
16640;SDS011;8434;47.990;7.880;2023-02-11T09:04:09;18.70;;;11.33;;
16640;SDS011;8434;47.990;7.880;2023-02-11T09:06:55;17.47;;;11.73;;
16640;SDS011;8434;47.990;7.880;2023-02-11T09:09:40;15.70;;;11.70;;
16640;SDS011;8434;47.990;7.880;2023-02-11T09:12:26;19.33;;;11.90;;
16640;SDS011;8434;47.990;7.880;2023-02-11T09:15:11;22.07;;;13.27;;
16640;SDS011;8434;47.990;7.880;2023-02-11T09:17:57;20.23;;;13.27;;
16640;SDS011;8434;47.990;7.880;2023-02-11T09:20:45;16.07;;;10.77;;
16640;SDS011;8434;47.990;7.880;2023-02-11T09:23:30;16.83;;;11.37;;
16640;SDS011;8434;47.990;7.880;2023-02-11T09:26:18;17.37;;;12.50;;
16640;SDS011;8434;47.990;7.880;2023-02-11T09:29:04;18.77;;;13.37;;
16640;SDS011;8434;47.990;7.880;2023-02-11T09:31:50;22.47;;;15.37;;
16640;SDS011;8434;47.990;7.880;2023-02-11T09:34:35;24.83;;;15.90;;
16640;SDS011;8434;47.990;7.880;2023-02-11T09:37:22;23.30;;;14.70;;
16640;SDS011;8434;47.990;7.880;2023-02-11T09:40:08;20.40;;;15.00;;
16640;SDS011;8434;47.990;7.880;2023-02-11T09:42:55;23.67;;;16.13;;
16640;SDS011;8434;47.990;7.880;2023-02-11T09:45:40;21.23;;;15.70;;
16640;SDS011;8434;47.990;7.880;2023-02-11T09:48:26;18.47;;;14.00;;
16640;SDS011;8434;47.990;7.880;2023-02-11T09:51:14;19.77;;;14.43;;
16640;SDS011;8434;47.990;7.880;2023-02-11T09:54:04;20.30;;;14.40;;
16640;SDS011;8434;47.990;7.880;2023-02-11T09:56:51;20.27;;;13.30;;
16640;SDS011;8434;47.990;7.880;2023-02-11T09:59:37;20.30;;;15.00;;
16640;SDS011;8434;47.990;7.880;2023-02-11T10:02:25;22.00;;;16.03;;
16640;SDS011;8434;47.990;7.880;2023-02-11T10:05:13;24.00;;;15.03;;
16640;SDS011;8434;47.990;7.880;2023-02-11T10:08:03;21.80;;;14.80;;
16640;SDS011;8434;47.990;7.880;2023-02-11T10:10:54;21.07;;;14.53;;
16640;SDS011;8434;47.990;7.880;2023-02-11T10:13:44;21.33;;;14.03;;
16640;SDS011;8434;47.990;7.880;2023-02-11T10:16:35;21.43;;;14.67;;
16640;SDS011;8434;47.990;7.880;2023-02-11T10:19:26;19.50;;;13.97;;
16640;SDS011;8434;47.990;7.880;2023-02-11T10:22:16;21.50;;;14.00;;
16640;SDS011;8434;47.990;7.880;2023-02-11T10:25:05;19.63;;;14.03;;
16640;SDS011;8434;47.990;7.880;2023-02-11T10:27:57;22.60;;;14.30;;
16640;SDS011;8434;47.990;7.880;2023-02-11T10:30:45;21.83;;;14.13;;
16640;SDS011;8434;47.990;7.880;2023-02-11T10:33:35;19.80;;;14.03;;
16640;SDS011;8434;47.990;7.880;2023-02-11T10:36:26;21.10;;;14.63;;
16640;SDS011;8434;47.990;7.880;2023-02-11T10:39:13;19.77;;;13.83;;
16640;SDS011;8434;47.990;7.880;2023-02-11T10:41:59;21.30;;;15.37;;
16640;SDS011;8434;47.990;7.880;2023-02-11T10:44:52;21.80;;;15.00;;
16640;SDS011;8434;47.990;7.880;2023-02-11T10:47:39;22.40;;;15.30;;
16640;SDS011;8434;47.990;7.880;2023-02-11T10:50:25;20.70;;;14.67;;
16640;SDS011;8434;47.990;7.880;2023-02-11T10:53:12;21.57;;;14.80;;
16640;SDS011;8434;47.990;7.880;2023-02-11T10:55:59;23.13;;;16.43;;
16640;SDS011;8434;47.990;7.880;2023-02-11T10:58:53;24.50;;;16.40;;
16640;SDS011;8434;47.990;7.880;2023-02-11T11:01:41;23.57;;;16.07;;
16640;SDS011;8434;47.990;7.880;2023-02-11T11:04:32;25.10;;;16.50;;
16640;SDS011;8434;47.990;7.880;2023-02-11T11:07:18;23.20;;;17.43;;
16640;SDS011;8434;47.990;7.880;2023-02-11T11:10:05;25.63;;;17.57;;
16640;SDS011;8434;47.990;7.880;2023-02-11T11:12:51;27.07;;;18.37;;
16640;SDS011;8434;47.990;7.880;2023-02-11T11:15:37;30.80;;;19.47;;
16640;SDS011;8434;47.990;7.880;2023-02-11T11:18:24;31.17;;;20.20;;
16640;SDS011;8434;47.990;7.880;2023-02-11T11:21:11;32.80;;;20.73;;
16640;SDS011;8434;47.990;7.880;2023-02-11T11:23:58;32.57;;;21.03;;
16640;SDS011;8434;47.990;7.880;2023-02-11T11:26:44;37.67;;;22.37;;
16640;SDS011;8434;47.990;7.880;2023-02-11T11:29:32;36.27;;;21.33;;
16640;SDS011;8434;47.990;7.880;2023-02-11T11:32:19;32.50;;;21.53;;
16640;SDS011;8434;47.990;7.880;2023-02-11T11:35:07;32.63;;;20.13;;
16640;SDS011;8434;47.990;7.880;2023-02-11T11:38:04;37.37;;;23.93;;
16640;SDS011;8434;47.990;7.880;2023-02-11T11:43:57;34.13;;;21.87;;
16640;SDS011;8434;47.990;7.880;2023-02-11T11:46:43;32.93;;;21.40;;
16640;SDS011;8434;47.990;7.880;2023-02-11T11:49:29;36.10;;;22.67;;
16640;SDS011;8434;47.990;7.880;2023-02-11T11:52:19;32.70;;;21.83;;
16640;SDS011;8434;47.990;7.880;2023-02-11T11:55:10;32.67;;;20.07;;
16640;SDS011;8434;47.990;7.880;2023-02-11T11:57:56;35.10;;;20.97;;
16640;SDS011;8434;47.990;7.880;2023-02-11T12:00:44;35.47;;;22.43;;
16640;SDS011;8434;47.990;7.880;2023-02-11T12:03:43;33.57;;;21.63;;
16640;SDS011;8434;47.990;7.880;2023-02-11T12:06:38;36.03;;;21.93;;
16640;SDS011;8434;47.990;7.880;2023-02-11T12:09:28;37.63;;;22.20;;
16640;SDS011;8434;47.990;7.880;2023-02-11T12:12:26;32.07;;;20.50;;
16640;SDS011;8434;47.990;7.880;2023-02-11T12:15:21;35.67;;;23.73;;
16640;SDS011;8434;47.990;7.880;2023-02-11T12:18:13;37.87;;;21.83;;
16640;SDS011;8434;47.990;7.880;2023-02-11T12:21:04;34.30;;;21.63;;
16640;SDS011;8434;47.990;7.880;2023-02-11T12:23:57;40.13;;;21.93;;
16640;SDS011;8434;47.990;7.880;2023-02-11T12:26:48;33.87;;;19.60;;
16640;SDS011;8434;47.990;7.880;2023-02-11T12:29:36;36.73;;;22.47;;
16640;SDS011;8434;47.990;7.880;2023-02-11T12:32:26;35.80;;;22.77;;
16640;SDS011;8434;47.990;7.880;2023-02-11T12:35:19;33.77;;;21.97;;
16640;SDS011;8434;47.990;7.880;2023-02-11T12:38:11;32.83;;;21.63;;
16640;SDS011;8434;47.990;7.880;2023-02-11T12:41:02;32.57;;;21.50;;
16640;SDS011;8434;47.990;7.880;2023-02-11T12:43:51;34.83;;;22.13;;
16640;SDS011;8434;47.990;7.880;2023-02-11T12:46:37;37.93;;;22.63;;
16640;SDS011;8434;47.990;7.880;2023-02-11T12:49:34;33.33;;;21.40;;
16640;SDS011;8434;47.990;7.880;2023-02-11T12:52:28;38.20;;;22.23;;
16640;SDS011;8434;47.990;7.880;2023-02-11T12:55:18;32.07;;;20.90;;
16640;SDS011;8434;47.990;7.880;2023-02-11T12:58:04;37.10;;;21.53;;
16640;SDS011;8434;47.990;7.880;2023-02-11T13:00:58;32.80;;;20.90;;
16640;SDS011;8434;47.990;7.880;2023-02-11T13:03:47;33.70;;;21.07;;
16640;SDS011;8434;47.990;7.880;2023-02-11T13:06:36;31.60;;;20.10;;
16640;SDS011;8434;47.990;7.880;2023-02-11T13:09:23;35.00;;;20.97;;
16640;SDS011;8434;47.990;7.880;2023-02-11T13:12:11;30.77;;;20.33;;
16640;SDS011;8434;47.990;7.880;2023-02-11T13:15:14;32.97;;;20.53;;
16640;SDS011;8434;47.990;7.880;2023-02-11T13:18:03;29.43;;;18.87;;
16640;SDS011;8434;47.990;7.880;2023-02-11T13:20:53;34.13;;;19.27;;
16640;SDS011;8434;47.990;7.880;2023-02-11T13:23:42;31.47;;;18.77;;
16640;SDS011;8434;47.990;7.880;2023-02-11T13:26:32;31.00;;;18.40;;
16640;SDS011;8434;47.990;7.880;2023-02-11T13:29:21;28.63;;;16.93;;
16640;SDS011;8434;47.990;7.880;2023-02-11T13:32:10;30.30;;;17.07;;
16640;SDS011;8434;47.990;7.880;2023-02-11T13:34:57;32.67;;;18.57;;
16640;SDS011;8434;47.990;7.880;2023-02-11T13:37:43;27.40;;;16.63;;
16640;SDS011;8434;47.990;7.880;2023-02-11T13:40:32;32.67;;;17.17;;
16640;SDS011;8434;47.990;7.880;2023-02-11T13:43:19;33.27;;;18.20;;
16640;SDS011;8434;47.990;7.880;2023-02-11T13:46:05;28.30;;;17.00;;
16640;SDS011;8434;47.990;7.880;2023-02-11T13:48:53;33.30;;;18.70;;
16640;SDS011;8434;47.990;7.880;2023-02-11T13:51:40;34.23;;;18.80;;
16640;SDS011;8434;47.990;7.880;2023-02-11T13:54:28;32.33;;;19.37;;
16640;SDS011;8434;47.990;7.880;2023-02-11T13:57:20;28.77;;;17.80;;
16640;SDS011;8434;47.990;7.880;2023-02-11T14:03:23;29.87;;;17.93;;
16640;SDS011;8434;47.990;7.880;2023-02-11T14:06:26;33.00;;;16.90;;
16640;SDS011;8434;47.990;7.880;2023-02-11T14:09:46;28.40;;;17.03;;
16640;SDS011;8434;47.990;7.880;2023-02-11T14:12:32;31.63;;;17.43;;
16640;SDS011;8434;47.990;7.880;2023-02-11T14:15:19;32.47;;;17.07;;
16640;SDS011;8434;47.990;7.880;2023-02-11T14:21:11;28.07;;;16.27;;
16640;SDS011;8434;47.990;7.880;2023-02-11T14:26:59;23.13;;;13.73;;
16640;SDS011;8434;47.990;7.880;2023-02-11T14:29:48;22.50;;;13.80;;
16640;SDS011;8434;47.990;7.880;2023-02-11T14:32:38;21.53;;;11.33;;
16640;SDS011;8434;47.990;7.880;2023-02-11T14:35:28;25.10;;;11.87;;
16640;SDS011;8434;47.990;7.880;2023-02-11T14:38:17;18.83;;;10.93;;
16640;SDS011;8434;47.990;7.880;2023-02-11T14:41:06;17.27;;;10.37;;
16640;SDS011;8434;47.990;7.880;2023-02-11T14:43:56;20.90;;;12.50;;
16640;SDS011;8434;47.990;7.880;2023-02-11T14:46:43;24.63;;;13.20;;
16640;SDS011;8434;47.990;7.880;2023-02-11T14:49:30;16.33;;;9.73;;
16640;SDS011;8434;47.990;7.880;2023-02-11T14:52:20;15.37;;;9.60;;
16640;SDS011;8434;47.990;7.880;2023-02-11T14:55:12;14.70;;;8.50;;
16640;SDS011;8434;47.990;7.880;2023-02-11T14:58:13;16.87;;;9.47;;
16640;SDS011;8434;47.990;7.880;2023-02-11T15:01:00;15.70;;;8.97;;
16640;SDS011;8434;47.990;7.880;2023-02-11T15:03:49;13.93;;;7.37;;
16640;SDS011;8434;47.990;7.880;2023-02-11T15:06:35;15.47;;;8.63;;
16640;SDS011;8434;47.990;7.880;2023-02-11T15:09:22;13.80;;;9.23;;
16640;SDS011;8434;47.990;7.880;2023-02-11T15:12:14;17.20;;;9.17;;
16640;SDS011;8434;47.990;7.880;2023-02-11T15:15:03;15.57;;;8.57;;
16640;SDS011;8434;47.990;7.880;2023-02-11T15:17:49;13.97;;;9.27;;
16640;SDS011;8434;47.990;7.880;2023-02-11T15:20:35;15.37;;;8.37;;
16640;SDS011;8434;47.990;7.880;2023-02-11T15:23:21;15.67;;;9.37;;
16640;SDS011;8434;47.990;7.880;2023-02-11T15:26:11;20.00;;;10.40;;
16640;SDS011;8434;47.990;7.880;2023-02-11T15:28:56;19.27;;;11.60;;
16640;SDS011;8434;47.990;7.880;2023-02-11T15:31:42;21.67;;;11.40;;
16640;SDS011;8434;47.990;7.880;2023-02-11T15:34:28;19.30;;;11.17;;
16640;SDS011;8434;47.990;7.880;2023-02-11T15:37:16;18.73;;;10.73;;
16640;SDS011;8434;47.990;7.880;2023-02-11T15:40:07;20.63;;;11.57;;
16640;SDS011;8434;47.990;7.880;2023-02-11T15:42:54;19.97;;;10.80;;
16640;SDS011;8434;47.990;7.880;2023-02-11T15:45:41;22.33;;;11.20;;
16640;SDS011;8434;47.990;7.880;2023-02-11T15:48:31;17.73;;;10.33;;
16640;SDS011;8434;47.990;7.880;2023-02-11T15:51:20;22.07;;;11.23;;
16640;SDS011;8434;47.990;7.880;2023-02-11T15:54:06;19.83;;;11.40;;
16640;SDS011;8434;47.990;7.880;2023-02-11T15:56:53;21.63;;;11.03;;
16640;SDS011;8434;47.990;7.880;2023-02-11T15:59:39;21.47;;;11.80;;
16640;SDS011;8434;47.990;7.880;2023-02-11T16:02:29;19.00;;;10.30;;
16640;SDS011;8434;47.990;7.880;2023-02-11T16:05:26;17.20;;;10.37;;
16640;SDS011;8434;47.990;7.880;2023-02-11T16:08:17;25.57;;;13.50;;
16640;SDS011;8434;47.990;7.880;2023-02-11T16:11:04;28.73;;;15.47;;
16640;SDS011;8434;47.990;7.880;2023-02-11T16:13:51;32.00;;;17.37;;
16640;SDS011;8434;47.990;7.880;2023-02-11T16:16:38;25.53;;;14.87;;
16640;SDS011;8434;47.990;7.880;2023-02-11T16:19:24;24.93;;;14.20;;
16640;SDS011;8434;47.990;7.880;2023-02-11T16:22:14;37.63;;;22.20;;
16640;SDS011;8434;47.990;7.880;2023-02-11T16:25:01;47.23;;;26.23;;
16640;SDS011;8434;47.990;7.880;2023-02-11T16:27:47;34.80;;;19.07;;
16640;SDS011;8434;47.990;7.880;2023-02-11T16:30:34;33.00;;;17.13;;
16640;SDS011;8434;47.990;7.880;2023-02-11T16:33:20;29.50;;;15.97;;
16640;SDS011;8434;47.990;7.880;2023-02-11T16:36:09;31.13;;;15.63;;
16640;SDS011;8434;47.990;7.880;2023-02-11T16:38:55;24.80;;;12.97;;
16640;SDS011;8434;47.990;7.880;2023-02-11T16:41:42;23.90;;;13.83;;
16640;SDS011;8434;47.990;7.880;2023-02-11T16:44:28;20.67;;;11.97;;
16640;SDS011;8434;47.990;7.880;2023-02-11T16:47:15;20.13;;;10.23;;
16640;SDS011;8434;47.990;7.880;2023-02-11T16:50:02;20.60;;;10.57;;
16640;SDS011;8434;47.990;7.880;2023-02-11T16:52:47;15.83;;;8.87;;
16640;SDS011;8434;47.990;7.880;2023-02-11T16:55:33;12.93;;;8.83;;
16640;SDS011;8434;47.990;7.880;2023-02-11T16:58:19;17.40;;;9.57;;
16640;SDS011;8434;47.990;7.880;2023-02-11T17:01:05;17.40;;;10.33;;
16640;SDS011;8434;47.990;7.880;2023-02-11T17:03:50;16.80;;;10.30;;
16640;SDS011;8434;47.990;7.880;2023-02-11T17:06:37;17.47;;;11.37;;
16640;SDS011;8434;47.990;7.880;2023-02-11T17:09:25;22.83;;;13.43;;
16640;SDS011;8434;47.990;7.880;2023-02-11T17:12:10;25.30;;;15.63;;